sensor_id;sensor_type;location;lat;lon;timestamp;pressure;altitude;pressure_sealevel;temperature;humidity
42003;BME280;27693;50.506;30.832;2022-08-19T00:00:22;99471.80;;;20.86;70.80
42003;BME280;27693;50.506;30.832;2022-08-19T00:01:26;99478.73;;;20.87;70.71
42003;BME280;27693;50.506;30.832;2022-08-19T00:02:31;99479.27;;;20.91;70.53
42003;BME280;27693;50.506;30.832;2022-08-19T00:03:34;99479.42;;;20.89;70.72
42003;BME280;27693;50.506;30.832;2022-08-19T00:04:36;99478.19;;;20.94;70.69
42003;BME280;27693;50.506;30.832;2022-08-19T00:05:39;99477.06;;;20.96;70.52
42003;BME280;27693;50.506;30.832;2022-08-19T00:06:43;99474.27;;;20.98;70.34
42003;BME280;27693;50.506;30.832;2022-08-19T00:07:47;99478.19;;;20.94;70.34
42003;BME280;27693;50.506;30.832;2022-08-19T00:08:51;99486.52;;;20.99;70.27
42003;BME280;27693;50.506;30.832;2022-08-19T00:09:53;99484.29;;;20.94;70.32
42003;BME280;27693;50.506;30.832;2022-08-19T00:10:57;99481.80;;;20.93;70.37
42003;BME280;27693;50.506;30.832;2022-08-19T00:12:00;99482.47;;;20.95;70.30
42003;BME280;27693;50.506;30.832;2022-08-19T00:13:03;99484.29;;;20.94;70.30
42003;BME280;27693;50.506;30.832;2022-08-19T00:14:06;99480.97;;;20.82;70.65
42003;BME280;27693;50.506;30.832;2022-08-19T00:15:15;99484.59;;;20.81;70.77
42003;BME280;27693;50.506;30.832;2022-08-19T00:16:18;99487.37;;;20.70;71.23
42003;BME280;27693;50.506;30.832;2022-08-19T00:17:22;99487.64;;;20.67;71.42
42003;BME280;27693;50.506;30.832;2022-08-19T00:18:25;99488.35;;;20.59;71.74
42003;BME280;27693;50.506;30.832;2022-08-19T00:19:27;99502.27;;;20.61;71.75
42003;BME280;27693;50.506;30.832;2022-08-19T00:20:29;99495.88;;;20.54;72.11
42003;BME280;27693;50.506;30.832;2022-08-19T00:21:32;99489.17;;;20.59;71.96
42003;BME280;27693;50.506;30.832;2022-08-19T00:22:34;99496.56;;;20.66;71.87
42003;BME280;27693;50.506;30.832;2022-08-19T00:23:36;99499.33;;;20.64;71.76
42003;BME280;27693;50.506;30.832;2022-08-19T00:24:38;99496.03;;;20.72;71.61
42003;BME280;27693;50.506;30.832;2022-08-19T00:25:40;99497.70;;;20.73;71.47
42003;BME280;27693;50.506;30.832;2022-08-19T00:26:46;99488.76;;;20.64;71.61
42003;BME280;27693;50.506;30.832;2022-08-19T00:27:49;99493.78;;;20.57;71.95
42003;BME280;27693;50.506;30.832;2022-08-19T00:28:51;99486.69;;;20.48;72.32
42003;BME280;27693;50.506;30.832;2022-08-19T00:29:53;99488.52;;;20.48;72.38
42003;BME280;27693;50.506;30.832;2022-08-19T00:30:56;99486.42;;;20.51;72.36
42003;BME280;27693;50.506;30.832;2022-08-19T00:31:59;99487.66;;;20.47;72.41
42003;BME280;27693;50.506;30.832;2022-08-19T00:33:01;99484.76;;;20.40;72.71
42003;BME280;27693;50.506;30.832;2022-08-19T00:34:04;99483.23;;;20.38;72.69
42003;BME280;27693;50.506;30.832;2022-08-19T00:35:07;99486.14;;;20.35;72.93
42003;BME280;27693;50.506;30.832;2022-08-19T00:36:11;99480.71;;;20.26;73.27
42003;BME280;27693;50.506;30.832;2022-08-19T00:37:14;99486.95;;;20.25;73.44
42003;BME280;27693;50.506;30.832;2022-08-19T00:38:16;99484.77;;;20.31;73.31
42003;BME280;27693;50.506;30.832;2022-08-19T00:39:20;99483.64;;;20.33;73.17
42003;BME280;27693;50.506;30.832;2022-08-19T00:40:26;99480.86;;;20.35;73.21
42003;BME280;27693;50.506;30.832;2022-08-19T00:41:28;99482.37;;;20.37;73.13
42003;BME280;27693;50.506;30.832;2022-08-19T00:42:31;99483.23;;;20.38;73.20
42003;BME280;27693;50.506;30.832;2022-08-19T00:43:34;99480.03;;;20.44;72.95
42003;BME280;27693;50.506;30.832;2022-08-19T00:44:36;99480.03;;;20.44;72.95
42003;BME280;27693;50.506;30.832;2022-08-19T00:45:40;99481.27;;;20.40;72.87
42003;BME280;27693;50.506;30.832;2022-08-19T00:46:44;99484.05;;;20.38;72.88
42003;BME280;27693;50.506;30.832;2022-08-19T00:47:49;99483.09;;;20.39;72.85
42003;BME280;27693;50.506;30.832;2022-08-19T00:48:51;99486.14;;;20.35;73.14
42003;BME280;27693;50.506;30.832;2022-08-19T00:49:56;99488.78;;;20.35;73.18
42003;BME280;27693;50.506;30.832;2022-08-19T00:51:00;99491.42;;;20.35;73.14
42003;BME280;27693;50.506;30.832;2022-08-19T00:52:08;99484.88;;;20.39;72.98
42003;BME280;27693;50.506;30.832;2022-08-19T00:53:13;99486.55;;;20.40;72.96
42003;BME280;27693;50.506;30.832;2022-08-19T00:54:16;99490.45;;;20.36;73.10
42003;BME280;27693;50.506;30.832;2022-08-19T00:55:22;99490.16;;;20.29;73.39
42003;BME280;27693;50.506;30.832;2022-08-19T00:56:25;99491.56;;;20.23;73.56
42003;BME280;27693;50.506;30.832;2022-08-19T00:57:31;99487.66;;;20.27;73.58
42003;BME280;27693;50.506;30.832;2022-08-19T00:58:35;99481.41;;;20.29;73.43
42003;BME280;27693;50.506;30.832;2022-08-19T00:59:40;99492.95;;;20.27;73.54
42003;BME280;27693;50.506;30.832;2022-08-19T01:00:45;99486.28;;;20.23;73.53
42003;BME280;27693;50.506;30.832;2022-08-19T01:01:48;99498.52;;;20.15;73.94
42003;BME280;27693;50.506;30.832;2022-08-19T01:02:50;99490.16;;;20.09;74.08
42003;BME280;27693;50.506;30.832;2022-08-19T01:03:54;99491.55;;;20.04;74.38
42003;BME280;27693;50.506;30.832;2022-08-19T01:05:02;99499.59;;;20.02;74.52
42003;BME280;27693;50.506;30.832;2022-08-19T01:06:06;99504.05;;;20.02;74.62
42003;BME280;27693;50.506;30.832;2022-08-19T01:07:09;99497.09;;;20.01;74.57
42003;BME280;27693;50.506;30.832;2022-08-19T01:08:15;99497.66;;;20.04;74.54
42003;BME280;27693;50.506;30.832;2022-08-19T01:09:18;99499.33;;;20.05;74.40
42003;BME280;27693;50.506;30.832;2022-08-19T01:10:25;99499.60;;;20.12;74.30
42003;BME280;27693;50.506;30.832;2022-08-19T01:11:27;99493.64;;;20.10;74.24
42003;BME280;27693;50.506;30.832;2022-08-19T01:12:31;99491.55;;;20.04;74.40
42003;BME280;27693;50.506;30.832;2022-08-19T01:13:34;99491.40;;;19.95;74.72
42003;BME280;27693;50.506;30.832;2022-08-19T01:14:39;99489.30;;;19.89;75.01
42003;BME280;27693;50.506;30.832;2022-08-19T01:15:45;99490.08;;;19.80;75.69
42003;BME280;27693;50.506;30.832;2022-08-19T01:16:47;99490.08;;;19.80;75.69
42003;BME280;27693;50.506;30.832;2022-08-19T01:17:50;99494.39;;;19.81;75.45
42003;BME280;27693;50.506;30.832;2022-08-19T01:18:54;99494.80;;;19.76;75.69
42003;BME280;27693;50.506;30.832;2022-08-19T01:19:56;99488.13;;;19.72;76.04
42003;BME280;27693;50.506;30.832;2022-08-19T01:21:02;99488.13;;;19.72;76.04
42003;BME280;27693;50.506;30.832;2022-08-19T01:23:16;99495.64;;;19.77;75.52
42003;BME280;27693;50.506;30.832;2022-08-19T01:24:18;99495.36;;;19.80;75.75
42003;BME280;27693;50.506;30.832;2022-08-19T01:25:29;99494.39;;;19.81;75.58
42003;BME280;27693;50.506;30.832;2022-08-19T01:26:29;99493.68;;;19.79;75.55
42003;BME280;27693;50.506;30.832;2022-08-19T01:27:41;99492.55;;;19.72;75.90
42003;BME280;27693;50.506;30.832;2022-08-19T01:28:47;99490.87;;;19.71;75.96
42003;BME280;27693;50.506;30.832;2022-08-19T01:29:52;99501.32;;;19.72;75.94
42003;BME280;27693;50.506;30.832;2022-08-19T01:30:55;99495.56;;;19.57;76.41
42003;BME280;27693;50.506;30.832;2022-08-19T01:31:58;99494.98;;;19.54;76.74
42003;BME280;27693;50.506;30.832;2022-08-19T01:33:01;99490.82;;;19.51;76.82
42003;BME280;27693;50.506;30.832;2022-08-19T01:34:04;99487.22;;;19.52;76.83
42003;BME280;27693;50.506;30.832;2022-08-19T01:35:08;99495.13;;;19.52;76.87
42003;BME280;27693;50.506;30.832;2022-08-19T01:36:14;99487.25;;;19.62;76.65
42003;BME280;27693;50.506;30.832;2022-08-19T01:37:16;99487.25;;;19.62;76.65
42003;BME280;27693;50.506;30.832;2022-08-19T01:39:34;99484.04;;;19.58;77.08
42003;BME280;27693;50.506;30.832;2022-08-19T01:40:39;99489.69;;;19.44;77.20
42003;BME280;27693;50.506;30.832;2022-08-19T01:41:41;99486.22;;;19.43;77.19
42003;BME280;27693;50.506;30.832;2022-08-19T01:42:44;99485.55;;;19.51;77.13
42003;BME280;27693;50.506;30.832;2022-08-19T01:43:46;99488.29;;;19.40;77.30
42003;BME280;27693;50.506;30.832;2022-08-19T01:44:50;99480.98;;;19.22;78.01
42003;BME280;27693;50.506;30.832;2022-08-19T01:45:52;99489.61;;;19.24;78.05
42003;BME280;27693;50.506;30.832;2022-08-19T01:46:55;99484.08;;;19.27;78.16
42003;BME280;27693;50.506;30.832;2022-08-19T01:47:58;99476.17;;;19.27;77.95
42003;BME280;27693;50.506;30.832;2022-08-19T01:49:04;99476.17;;;19.27;77.95
42003;BME280;27693;50.506;30.832;2022-08-19T01:50:08;99488.50;;;19.27;77.90
42003;BME280;27693;50.506;30.832;2022-08-19T01:51:12;99481.34;;;19.39;77.87
42003;BME280;27693;50.506;30.832;2022-08-19T01:52:14;99481.34;;;19.39;77.87
42003;BME280;27693;50.506;30.832;2022-08-19T01:53:16;99485.09;;;19.36;77.53
42003;BME280;27693;50.506;30.832;2022-08-19T01:54:20;99479.66;;;19.38;77.53
42003;BME280;27693;50.506;30.832;2022-08-19T01:55:24;99482.05;;;19.41;77.39
42003;BME280;27693;50.506;30.832;2022-08-19T01:56:27;99474.36;;;19.36;77.47
42003;BME280;27693;50.506;30.832;2022-08-19T01:57:29;99474.36;;;19.28;77.81
42003;BME280;27693;50.506;30.832;2022-08-19T01:58:39;99486.90;;;19.36;77.60
42003;BME280;27693;50.506;30.832;2022-08-19T01:59:41;99478.27;;;19.34;77.45
42003;BME280;27693;50.506;30.832;2022-08-19T02:00:45;99481.70;;;19.24;78.02
42003;BME280;27693;50.506;30.832;2022-08-19T02:01:47;99477.38;;;19.23;78.00
42003;BME280;27693;50.506;30.832;2022-08-19T02:02:49;99479.06;;;19.24;77.92
42003;BME280;27693;50.506;30.832;2022-08-19T02:03:51;99482.50;;;19.15;78.46
42003;BME280;27693;50.506;30.832;2022-08-19T02:04:55;99480.36;;;19.09;78.65
42003;BME280;27693;50.506;30.832;2022-08-19T02:05:59;99475.09;;;19.09;78.66
42003;BME280;27693;50.506;30.832;2022-08-19T02:07:02;99479.55;;;19.08;78.68
42003;BME280;27693;50.506;30.832;2022-08-19T02:08:05;99479.55;;;19.08;78.68
42003;BME280;27693;50.506;30.832;2022-08-19T02:09:07;99474.84;;;19.12;78.58
42003;BME280;27693;50.506;30.832;2022-08-19T02:10:18;99479.41;;;19.10;78.63
42003;BME280;27693;50.506;30.832;2022-08-19T02:12:33;99478.62;;;19.19;78.68
42003;BME280;27693;50.506;30.832;2022-08-19T02:13:37;99477.48;;;19.12;78.62
42003;BME280;27693;50.506;30.832;2022-08-19T02:14:39;99483.19;;;19.17;78.39
42003;BME280;27693;50.506;30.832;2022-08-19T02:15:42;99478.81;;;19.27;78.24
42003;BME280;27693;50.506;30.832;2022-08-19T02:16:44;99473.17;;;19.11;78.45
42003;BME280;27693;50.506;30.832;2022-08-19T02:17:47;99487.31;;;19.10;78.62
42003;BME280;27693;50.506;30.832;2022-08-19T02:18:50;99483.19;;;19.17;78.55
42003;BME280;27693;50.506;30.832;2022-08-19T02:19:52;99477.91;;;19.17;78.23
42003;BME280;27693;50.506;30.832;2022-08-19T02:20:56;99474.06;;;19.21;78.11
42003;BME280;27693;50.506;30.832;2022-08-19T02:21:59;99483.51;;;19.24;77.85
42003;BME280;27693;50.506;30.832;2022-08-19T02:23:01;99478.23;;;19.24;77.99
42003;BME280;27693;50.506;30.832;2022-08-19T02:24:04;99478.34;;;19.22;78.06
42003;BME280;27693;50.506;30.832;2022-08-19T02:25:07;99478.62;;;19.19;78.03
42003;BME280;27693;50.506;30.832;2022-08-19T02:26:11;99477.66;;;19.20;78.05
42003;BME280;27693;50.506;30.832;2022-08-19T02:27:14;99480.02;;;19.23;77.93
42003;BME280;27693;50.506;30.832;2022-08-19T02:28:17;99476.95;;;19.18;77.99
42003;BME280;27693;50.506;30.832;2022-08-19T02:29:21;99479.59;;;19.18;77.92
42003;BME280;27693;50.506;30.832;2022-08-19T02:30:24;99469.04;;;19.18;77.95
42003;BME280;27693;50.506;30.832;2022-08-19T02:31:27;99463.77;;;19.18;77.81
42003;BME280;27693;50.506;30.832;2022-08-19T02:32:29;99469.61;;;19.22;77.86
42003;BME280;27693;50.506;30.832;2022-08-19T02:33:31;99473.35;;;19.19;77.74
42003;BME280;27693;50.506;30.832;2022-08-19T02:34:34;99471.95;;;19.15;77.85
42003;BME280;27693;50.506;30.832;2022-08-19T02:35:43;99479.59;;;19.18;77.72
42003;BME280;27693;50.506;30.832;2022-08-19T02:36:46;99477.34;;;19.13;77.89
42003;BME280;27693;50.506;30.832;2022-08-19T02:37:50;99474.02;;;19.11;77.92
42003;BME280;27693;50.506;30.832;2022-08-19T02:38:53;99476.23;;;19.16;77.85
42003;BME280;27693;50.506;30.832;2022-08-19T02:39:57;99476.81;;;19.20;77.67
42003;BME280;27693;50.506;30.832;2022-08-19T02:41:03;99477.38;;;19.23;77.54
42003;BME280;27693;50.506;30.832;2022-08-19T02:42:05;99468.51;;;19.24;77.46
42003;BME280;27693;50.506;30.832;2022-08-19T02:43:08;99469.24;;;19.05;78.16
42003;BME280;27693;50.506;30.832;2022-08-19T02:44:11;99467.27;;;18.97;78.38
42003;BME280;27693;50.506;30.832;2022-08-19T02:45:16;99472.30;;;19.01;78.42
42003;BME280;27693;50.506;30.832;2022-08-19T02:46:23;99474.27;;;19.08;78.33
42003;BME280;27693;50.506;30.832;2022-08-19T02:47:26;99473.31;;;19.09;78.02
42003;BME280;27693;50.506;30.832;2022-08-19T02:48:28;99479.55;;;19.08;78.10
42003;BME280;27693;50.506;30.832;2022-08-19T02:49:31;99478.72;;;19.08;78.02
42003;BME280;27693;50.506;30.832;2022-08-19T02:50:39;99481.08;;;19.11;77.96
42003;BME280;27693;50.506;30.832;2022-08-19T02:51:45;99480.78;;;19.04;78.06
42003;BME280;27693;50.506;30.832;2022-08-19T02:52:48;99480.89;;;19.03;78.29
42003;BME280;27693;50.506;30.832;2022-08-19T02:53:50;99479.55;;;19.08;78.09
42003;BME280;27693;50.506;30.832;2022-08-19T02:54:53;99484.00;;;19.08;77.97
42003;BME280;27693;50.506;30.832;2022-08-19T02:55:55;99479.22;;;19.02;78.18
42003;BME280;27693;50.506;30.832;2022-08-19T02:56:58;99481.74;;;19.03;78.03
42003;BME280;27693;50.506;30.832;2022-08-19T02:58:00;99480.07;;;19.02;78.07
42003;BME280;27693;50.506;30.832;2022-08-19T02:59:03;99487.12;;;19.02;78.12
42003;BME280;27693;50.506;30.832;2022-08-19T03:00:07;99484.48;;;19.02;78.42
42003;BME280;27693;50.506;30.832;2022-08-19T03:01:10;99481.17;;;18.99;78.01
42003;BME280;27693;50.506;30.832;2022-08-19T03:02:12;99473.07;;;18.91;78.32
42003;BME280;27693;50.506;30.832;2022-08-19T03:03:15;99473.07;;;18.91;78.32
42003;BME280;27693;50.506;30.832;2022-08-19T03:04:18;99479.79;;;19.05;78.23
42003;BME280;27693;50.506;30.832;2022-08-19T03:05:20;99480.36;;;19.09;78.00
42003;BME280;27693;50.506;30.832;2022-08-19T03:06:26;99474.27;;;19.08;77.74
42003;BME280;27693;50.506;30.832;2022-08-19T03:07:28;99486.49;;;19.09;77.68
42003;BME280;27693;50.506;30.832;2022-08-19T03:08:31;99481.61;;;19.05;77.86
42003;BME280;27693;50.506;30.832;2022-08-19T03:09:38;99487.54;;;18.97;77.89
42003;BME280;27693;50.506;30.832;2022-08-19T03:10:42;99485.73;;;18.97;78.00
42003;BME280;27693;50.506;30.832;2022-08-19T03:11:45;99485.59;;;18.99;78.05
42003;BME280;27693;50.506;30.832;2022-08-19T03:12:49;99483.94;;;18.98;77.92
42003;BME280;27693;50.506;30.832;2022-08-19T03:13:52;99485.73;;;18.97;77.95
42003;BME280;27693;50.506;30.832;2022-08-19T03:14:54;99482.84;;;19.01;77.88
42003;BME280;27693;50.506;30.832;2022-08-19T03:15:56;99481.41;;;18.96;78.01
42003;BME280;27693;50.506;30.832;2022-08-19T03:16:59;99489.90;;;19.00;78.02
42003;BME280;27693;50.506;30.832;2022-08-19T03:18:01;99486.16;;;19.03;77.85
42003;BME280;27693;50.506;30.832;2022-08-19T03:19:04;99486.44;;;18.99;77.82
42003;BME280;27693;50.506;30.832;2022-08-19T03:20:07;99485.15;;;18.94;77.98
42003;BME280;27693;50.506;30.832;2022-08-19T03:21:23;99484.63;;;19.00;77.97
42003;BME280;27693;50.506;30.832;2022-08-19T03:22:22;99489.52;;;19.05;77.93
42003;BME280;27693;50.506;30.832;2022-08-19T03:23:24;99487.59;;;19.07;77.71
42003;BME280;27693;50.506;30.832;2022-08-19T03:24:26;99483.23;;;18.96;77.97
42003;BME280;27693;50.506;30.832;2022-08-19T03:25:29;99492.29;;;19.03;77.84
42003;BME280;27693;50.506;30.832;2022-08-19T03:26:32;99487.84;;;19.04;77.77
42003;BME280;27693;50.506;30.832;2022-08-19T03:27:34;99483.66;;;19.01;77.75
42003;BME280;27693;50.506;30.832;2022-08-19T03:28:37;99491.19;;;19.06;77.77
42003;BME280;27693;50.506;30.832;2022-08-19T03:29:39;99489.27;;;19.08;77.70
42003;BME280;27693;50.506;30.832;2022-08-19T03:31:47;99489.27;;;19.08;77.45
42003;BME280;27693;50.506;30.832;2022-08-19T03:32:04;99486.78;;;19.16;77.56
42003;BME280;27693;50.506;30.832;2022-08-19T03:33:09;99485.91;;;19.06;77.57
42003;BME280;27693;50.506;30.832;2022-08-19T03:34:17;99485.64;;;19.09;77.38
42003;BME280;27693;50.506;30.832;2022-08-19T03:35:19;99488.98;;;19.11;77.37
42003;BME280;27693;50.506;30.832;2022-08-19T03:36:25;99493.88;;;19.15;77.14
42003;BME280;27693;50.506;30.832;2022-08-19T03:37:29;99494.84;;;19.14;77.02
42003;BME280;27693;50.506;30.832;2022-08-19T03:38:32;99499.29;;;19.14;77.03
42003;BME280;27693;50.506;30.832;2022-08-19T03:39:36;99497.61;;;19.13;77.07
42003;BME280;27693;50.506;30.832;2022-08-19T03:40:40;99500.39;;;19.11;77.11
42003;BME280;27693;50.506;30.832;2022-08-19T03:41:44;99502.12;;;19.01;77.47
42003;BME280;27693;50.506;30.832;2022-08-19T03:42:48;99502.26;;;18.99;77.50
42003;BME280;27693;50.506;30.832;2022-08-19T03:43:52;99505.47;;;19.03;77.63
42003;BME280;27693;50.506;30.832;2022-08-19T03:44:55;99503.41;;;19.07;77.44
42003;BME280;27693;50.506;30.832;2022-08-19T03:46:06;99510.08;;;19.11;77.30
42003;BME280;27693;50.506;30.832;2022-08-19T03:47:09;99518.18;;;19.19;77.10
42003;BME280;27693;50.506;30.832;2022-08-19T03:48:11;99515.69;;;19.18;77.00
42003;BME280;27693;50.506;30.832;2022-08-19T03:49:15;99511.52;;;19.15;77.08
42003;BME280;27693;50.506;30.832;2022-08-19T03:50:20;99514.01;;;19.17;76.94
42003;BME280;27693;50.506;30.832;2022-08-19T03:51:28;99516.50;;;19.18;76.83
42003;BME280;27693;50.506;30.832;2022-08-19T03:52:32;99515.98;;;19.24;76.79
42003;BME280;27693;50.506;30.832;2022-08-19T03:53:35;99512.52;;;19.24;76.56
42003;BME280;27693;50.506;30.832;2022-08-19T03:54:37;99513.05;;;19.18;76.64
42003;BME280;27693;50.506;30.832;2022-08-19T03:55:40;99508.93;;;19.04;77.08
42003;BME280;27693;50.506;30.832;2022-08-19T03:56:48;99507.25;;;19.03;77.24
42003;BME280;27693;50.506;30.832;2022-08-19T03:57:50;99513.24;;;19.05;77.36
42003;BME280;27693;50.506;30.832;2022-08-19T03:58:52;99512.00;;;19.09;77.10
42003;BME280;27693;50.506;30.832;2022-08-19T03:59:54;99519.75;;;19.01;77.40
42003;BME280;27693;50.506;30.832;2022-08-19T04:00:59;99517.36;;;18.97;77.50
42003;BME280;27693;50.506;30.832;2022-08-19T04:02:06;99519.17;;;18.97;77.68
42003;BME280;27693;50.506;30.832;2022-08-19T04:03:07;99515.82;;;18.95;77.83
42003;BME280;27693;50.506;30.832;2022-08-19T04:04:09;99524.75;;;19.04;77.56
42003;BME280;27693;50.506;30.832;2022-08-19T04:05:12;99523.79;;;19.05;77.22
42003;BME280;27693;50.506;30.832;2022-08-19T04:06:20;99528.67;;;19.09;77.18
42003;BME280;27693;50.506;30.832;2022-08-19T04:07:23;99536.78;;;19.18;76.91
42003;BME280;27693;50.506;30.832;2022-08-19T04:08:25;99534.83;;;19.20;76.87
42003;BME280;27693;50.506;30.832;2022-08-19T04:09:27;99541.00;;;19.30;76.50
42003;BME280;27693;50.506;30.832;2022-08-19T04:10:39;99547.67;;;19.34;76.19
42003;BME280;27693;50.506;30.832;2022-08-19T04:11:37;99542.16;;;19.37;76.15
42003;BME280;27693;50.506;30.832;2022-08-19T04:12:42;99548.25;;;19.38;75.90
42003;BME280;27693;50.506;30.832;2022-08-19T04:13:44;99544.22;;;19.34;76.32
42003;BME280;27693;50.506;30.832;2022-08-19T04:14:46;99550.20;;;19.36;76.08
42003;BME280;27693;50.506;30.832;2022-08-19T04:15:48;99542.92;;;19.28;76.27
42003;BME280;27693;50.506;30.832;2022-08-19T04:16:51;99549.05;;;19.28;76.06
42003;BME280;27693;50.506;30.832;2022-08-19T04:17:54;99542.21;;;19.26;76.23
42003;BME280;27693;50.506;30.832;2022-08-19T04:18:59;99548.20;;;19.28;76.38
42003;BME280;27693;50.506;30.832;2022-08-19T04:20:00;99551.11;;;19.25;76.64
42003;BME280;27693;50.506;30.832;2022-08-19T04:21:06;99544.84;;;19.26;76.27
42003;BME280;27693;50.506;30.832;2022-08-19T04:22:09;99547.62;;;19.24;76.27
42003;BME280;27693;50.506;30.832;2022-08-19T04:23:13;99547.95;;;19.31;76.37
42003;BME280;27693;50.506;30.832;2022-08-19T04:24:16;99553.23;;;19.31;76.20
42003;BME280;27693;50.506;30.832;2022-08-19T04:25:19;99553.66;;;19.36;75.83
42003;BME280;27693;50.506;30.832;2022-08-19T04:26:27;99556.97;;;19.28;76.05
42003;BME280;27693;50.506;30.832;2022-08-19T04:27:30;99552.37;;;19.30;76.13
42003;BME280;27693;50.506;30.832;2022-08-19T04:28:32;99545.89;;;19.35;76.01
42003;BME280;27693;50.506;30.832;2022-08-19T04:29:35;99550.45;;;19.33;75.94
42003;BME280;27693;50.506;30.832;2022-08-19T04:30:42;99548.53;;;19.35;75.83
42003;BME280;27693;50.506;30.832;2022-08-19T04:31:44;99542.16;;;19.37;75.81
42003;BME280;27693;50.506;30.832;2022-08-19T04:32:47;99548.00;;;19.41;75.75
42003;BME280;27693;50.506;30.832;2022-08-19T04:33:49;99548.82;;;19.41;75.61
42003;BME280;27693;50.506;30.832;2022-08-19T04:34:51;99551.59;;;19.40;75.32
42003;BME280;27693;50.506;30.832;2022-08-19T04:35:57;99547.56;;;19.36;75.74
42003;BME280;27693;50.506;30.832;2022-08-19T04:36:59;99553.09;;;19.33;75.93
42003;BME280;27693;50.506;30.832;2022-08-19T04:38:02;99552.37;;;19.30;75.89
42003;BME280;27693;50.506;30.832;2022-08-19T04:39:07;99552.95;;;19.34;75.76
42003;BME280;27693;50.506;30.832;2022-08-19T04:40:11;99554.05;;;19.31;75.70
42003;BME280;27693;50.506;30.832;2022-08-19T04:41:14;99554.77;;;19.34;75.90
42003;BME280;27693;50.506;30.832;2022-08-19T04:42:17;99553.52;;;19.38;75.73
42003;BME280;27693;50.506;30.832;2022-08-19T04:43:20;99561.77;;;19.23;76.22
42003;BME280;27693;50.506;30.832;2022-08-19T04:44:22;99548.34;;;19.26;76.12
42003;BME280;27693;50.506;30.832;2022-08-19T04:45:25;99554.00;;;19.22;75.97
42003;BME280;27693;50.506;30.832;2022-08-19T04:46:29;99548.34;;;19.26;76.05
42003;BME280;27693;50.506;30.832;2022-08-19T04:47:33;99544.22;;;19.34;75.71
42003;BME280;27693;50.506;30.832;2022-08-19T04:48:39;99546.33;;;19.40;75.58
42003;BME280;27693;50.506;30.832;2022-08-19T04:49:43;99549.92;;;19.39;75.51
42003;BME280;27693;50.506;30.832;2022-08-19T04:50:46;99542.72;;;19.41;75.60
42003;BME280;27693;50.506;30.832;2022-08-19T04:51:50;99543.41;;;19.43;75.61
42003;BME280;27693;50.506;30.832;2022-08-19T04:52:53;99544.40;;;19.42;75.35
42003;BME280;27693;50.506;30.832;2022-08-19T04:53:56;99543.87;;;19.48;75.16
42003;BME280;27693;50.506;30.832;2022-08-19T04:54:58;99545.80;;;19.46;75.12
42003;BME280;27693;50.506;30.832;2022-08-19T04:56:05;99549.14;;;19.48;75.16
42003;BME280;27693;50.506;30.832;2022-08-19T04:57:08;99546.22;;;19.51;75.21
42003;BME280;27693;50.506;30.832;2022-08-19T04:58:11;99546.94;;;19.53;75.02
42003;BME280;27693;50.506;30.832;2022-08-19T04:59:14;99546.80;;;19.55;75.02
42003;BME280;27693;50.506;30.832;2022-08-19T05:00:20;99546.69;;;19.56;74.85
42003;BME280;27693;50.506;30.832;2022-08-19T05:01:26;99546.41;;;19.59;74.73
42003;BME280;27693;50.506;30.832;2022-08-19T05:02:28;99549.36;;;19.66;74.56
42003;BME280;27693;50.506;30.832;2022-08-19T05:03:31;99543.66;;;19.71;74.33
42003;BME280;27693;50.506;30.832;2022-08-19T05:04:33;99547.30;;;19.70;74.32
42003;BME280;27693;50.506;30.832;2022-08-19T05:05:41;99549.47;;;19.64;74.43
42003;BME280;27693;50.506;30.832;2022-08-19T05:06:47;99552.39;;;19.61;74.49
42003;BME280;27693;50.506;30.832;2022-08-19T05:07:49;99561.27;;;19.60;74.80
42003;BME280;27693;50.506;30.832;2022-08-19T05:08:51;99551.97;;;19.56;74.76
42003;BME280;27693;50.506;30.832;2022-08-19T05:09:54;99557.49;;;19.53;74.94
42003;BME280;27693;50.506;30.832;2022-08-19T05:10:58;99553.03;;;19.54;75.11
42003;BME280;27693;50.506;30.832;2022-08-19T05:12:00;99558.02;;;19.47;75.49
42003;BME280;27693;50.506;30.832;2022-08-19T05:13:03;99555.20;;;19.39;75.81
42003;BME280;27693;50.506;30.832;2022-08-19T05:14:06;99562.97;;;19.40;75.66
42003;BME280;27693;50.506;30.832;2022-08-19T05:15:09;99560.66;;;19.47;75.64
42003;BME280;27693;50.506;30.832;2022-08-19T05:16:14;99545.55;;;19.49;75.50
42003;BME280;27693;50.506;30.832;2022-08-19T05:17:16;99558.64;;;19.60;75.48
42003;BME280;27693;50.506;30.832;2022-08-19T05:18:22;99561.70;;;19.66;75.36
42003;BME280;27693;50.506;30.832;2022-08-19T05:19:24;99555.89;;;19.72;74.96
42003;BME280;27693;50.506;30.832;2022-08-19T05:20:26;99552.72;;;19.78;74.75
42003;BME280;27693;50.506;30.832;2022-08-19T05:21:29;99559.30;;;19.84;74.74
42003;BME280;27693;50.506;30.832;2022-08-19T05:22:32;99559.16;;;19.85;74.43
42003;BME280;27693;50.506;30.832;2022-08-19T05:23:34;99561.80;;;19.85;74.56
42003;BME280;27693;50.506;30.832;2022-08-19T05:24:37;99560.13;;;19.84;74.60
42003;BME280;27693;50.506;30.832;2022-08-19T05:25:41;99557.66;;;19.92;74.30
42003;BME280;27693;50.506;30.832;2022-08-19T05:26:47;99561.43;;;20.00;74.05
42003;BME280;27693;50.506;30.832;2022-08-19T05:27:49;99563.25;;;19.99;73.96
42003;BME280;27693;50.506;30.832;2022-08-19T05:28:53;99561.72;;;19.97;73.86
42003;BME280;27693;50.506;30.832;2022-08-19T05:29:56;99557.41;;;19.95;74.02
42003;BME280;27693;50.506;30.832;2022-08-19T05:30:59;99563.67;;;20.04;74.91
42003;BME280;27693;50.506;30.832;2022-08-19T05:32:03;99563.67;;;20.04;74.91
42003;BME280;27693;50.506;30.832;2022-08-19T05:33:07;99560.20;;;20.04;73.42
42003;BME280;27693;50.506;30.832;2022-08-19T05:34:12;99562.70;;;20.05;73.87
42003;BME280;27693;50.506;30.832;2022-08-19T05:35:16;99564.95;;;20.10;73.18
42003;BME280;27693;50.506;30.832;2022-08-19T05:36:20;99564.80;;;20.11;73.40